Weather observations for the past three days for
Mojave
Imperial (Metric)
Date Time (pdt) Wind (mph) Vis. (mi.) Weather Sky Cond. Temperature (ºF) Relative Humidity Wind Chill (°F) Heat Index (°F) Pressure Precipitation (in)
Air Dwpt 6 hour altimeter (in) sea level (mb) 1 hr 3 hr 6 hr
Max. Min.
03 00:55 W 15 G 25 10.00 Fair CLR 66.2 41 40% 29.98 0.0
03 00:35 W 14 G 26 10.00 Fair CLR 66.7 40.3 38% 29.99 0.0
03 00:15 NW 18 G 29 10.00 Fair CLR 67.1 39.4 36% 29.98 0.0
02 23:55 Vrbl 3 10.00 Fair CLR 67.3 39.4 36% 29.99 0.0
02 23:35 W 8 G 22 10.00 Fair CLR 67.6 39.4 36% 30 0.0
02 23:15 S 8 10.00 Fair CLR 67.8 38.8 35% 30 0.0
02 22:55 W 9 10.00 Fair CLR 66.9 41.7 78.8 66.9 40% 30.01 0.0
02 22:35 Vrbl 7 10.00 Fair CLR 66.9 41.4 39% 30 0.0
02 22:15 W 8 G 20 10.00 Fair CLR 67.3 41.5 39% 30.01 0.0
02 21:55 W 16 10.00 Fair CLR 67.5 41.7 39% 30 0.0
02 21:35 W 18 10.00 Fair CLR 67.6 41.9 39% 30 0.0
02 21:15 W 22 10.00 Fair and Breezy CLR 68.2 40.6 37% 29.99 0.0
02 20:55 W 23 10.00 Fair and Breezy CLR 68.9 40.1 35% 29.99 0.0
02 20:35 W 18 10.00 Fair CLR 68.9 39.9 35% 29.98 0.0
02 20:15 W 12 10.00 Fair CLR 69.3 38.8 33% 29.98 0.0
02 19:55 W 10 10.00 Fair CLR 70.2 37.2 30% 29.98 0.0
02 19:35 W 17 9.00 Fair CLR 70.9 37 29% 29.98 0.0
02 19:15 W 15 G 25 10.00 Fair CLR 71.2 38.1 30% 29.98 0.0
02 18:55 W 20 G 26 9.00 Fair CLR 73.2 36.9 27% 29.98 0.0
02 18:35 W 21 G 30 10.00 Fair and Breezy CLR 73.9 36.9 26% 29.98 0.0
02 18:15 W 24 G 29 10.00 Fair and Breezy CLR 75 35.8 24% 76 29.98 0.0
02 17:55 W 18 G 28 10.00 Fair CLR 76.1 36 23% 77 29.98 0.0
02 17:35 W 17 G 28 10.00 Fair CLR 76.8 36 23% 77 29.98 0.0
02 17:15 W 18 G 28 10.00 Fair CLR 77.9 36 22% 78 29.98 0.0
02 16:55 NW 20 G 30 10.00 Fair CLR 78.8 35.2 84.7 78.6 21% 78 29.98 0.0
02 16:35 W 21 G 28 10.00 Fair and Breezy CLR 79.7 35.1 20% 78 29.98 0.0
02 16:15 NW 25 10.00 Fair and Breezy CLR 80.1 34.9 20% 79 29.98 0.0
02 15:55 NW 20 G 28 10.00 Fair CLR 81.3 34.3 18% 79 29.98 0.0
02 15:35 NW 17 10.00 Fair CLR 82.6 33.3 17% 80 29.98 0.0
02 15:15 NW 20 G 24 10.00 Fair CLR 83.3 31.1 15% 81 29.98 0.0
02 14:55 W 17 G 22 10.00 A Few Clouds FEW360 84.6 25.5 11% 82 29.98 0.0
02 14:35 NW 18 G 24 10.00 A Few Clouds FEW360 84.4 22.3 10% 81 29.99 0.0
02 14:15 NW 15 10.00 A Few Clouds FEW370 83.5 23.5 11% 81 29.99 0.0
02 13:55 W 18 10.00 Fair CLR 84.4 22.8 10% 81 30 0.0
02 13:35 W 17 G 25 10.00 Fair CLR 83.8 22.3 10% 81 30 0.0
02 13:15 NW 18 G 23 10.00 Fair CLR 83.5 24.6 11% 81 30 0.0
02 12:55 NW 16 G 22 10.00 Fair CLR 82.8 25 12% 80 30.01 0.0
02 12:35 W 14 10.00 Fair CLR 82.2 26.4 13% 80 30.02 0.0
02 12:15 W 15 G 18 10.00 Fair CLR 82 26.2 13% 80 30.02 0.0
02 11:55 NW 14 G 22 10.00 Fair CLR 80.8 24.1 12% 79 30.02 0.0
02 11:35 W 14 10.00 Fair CLR 81.3 23.5 12% 79 30.03 0.0
02 11:15 W 15 10.00 Fair CLR 80.8 24.6 13% 79 30.03 0.0
02 10:55 W 14 10.00 Fair CLR 79 28 79 55.6 15% 78 30.03 0.0
02 10:35 W 9 10.00 Fair CLR 77.5 29.7 17% 77 30.03 0.0
02 10:15 W 14 10.00 Fair CLR 76.6 30.2 18% 77 30.03 0.0
02 09:55 W 13 10.00 Fair CLR 74.8 30.4 19% 30.03 0.0
02 09:35 SW 14 10.00 Fair CLR 74.3 29.8 19% 30.03 0.0
02 09:15 W 13 10.00 Fair CLR 72.5 32.5 23% 30.03 0.0
02 08:55 W 10 10.00 Fair CLR 70.5 34.5 27% 30.03 0.0
02 08:35 W 10 10.00 Fair CLR 69.1 35.4 29% 30.03 0.0
02 08:15 W 14 10.00 Fair CLR 67.3 36.3 32% 30.03 0.0
02 07:55 SW 12 8.00 Fair CLR 64.9 36.3 35% 30.03 0.0
02 07:35 SW 9 10.00 Fair CLR 63.3 36.5 37% 30.03 0.0
02 07:15 SW 8 9.00 Fair CLR 59.5 37 43% 30.02 0.0
02 06:55 SW 7 9.00 Fair CLR 55.9 37 49% 30.02 0.0
02 06:35 SW 6 10.00 Fair CLR 56.3 36.9 48% 30.02 0.0
02 06:15 SW 5 10.00 Fair CLR 57.4 36.9 46% 30.01 0.0
02 05:55 W 9 10.00 Fair CLR 58.1 37.2 46% 30.01 0.0
02 05:35 W 8 10.00 Fair CLR 58.5 37.4 46% 30.01 0.0
02 05:15 W 10 10.00 Fair CLR 59.4 37.9 45% 30.01 0.0
02 04:55 W 13 10.00 Fair CLR 59.9 38.5 68.2 59.9 45% 30.01 0.0
02 04:35 W 15 10.00 Fair CLR 60.1 39 46% 30 0.0
02 04:15 W 12 10.00 Fair CLR 60.6 38.3 44% 30 0.0
02 03:55 W 14 10.00 Fair CLR 60.6 37 42% 30 0.0
02 03:35 W 10 10.00 Fair CLR 60.8 36.9 41% 30.01 0.0
02 03:15 W 13 10.00 Fair CLR 61.7 37.8 41% 30.01 0.0
02 02:55 W 16 10.00 Fair CLR 63 39.7 43% 30.01 0.0
02 02:35 W 15 10.00 Fair CLR 62.2 40.8 46% 30.01 0.0
02 02:15 W 14 10.00 Fair CLR 63.1 39.6 42% 30.01 0.0
02 01:55 W 13 10.00 Fair CLR 64.4 39.7 40% 30.02 0.0
02 01:35 W 15 10.00 Fair CLR 65.3 39.7 39% 30.02 0.0
02 01:15 W 10 10.00 Fair CLR 64.8 39 39% 30.02 0.0
02 00:55 W 15 10.00 Fair CLR 65.8 38.3 36% 30.02 0.0
02 00:35 W 14 10.00 Fair CLR 66.6 38.1 35% 30.01 0.0
02 00:15 W 12 10.00 Fair CLR 66.4 38.7 36% 30.01 0.0
01 23:55 W 15 10.00 Fair CLR 67.1 39.9 37% 30.01 0.0
01 23:35 W 16 10.00 Fair CLR 67.6 39.7 36% 30.01 0.0
01 23:15 W 15 10.00 Fair CLR 67.6 39 35% 30 0.0
01 22:55 W 15 10.00 Fair CLR 68.2 38.1 85.6 68.2 33% 30 0.0
01 22:35 W 16 10.00 Fair CLR 68.5 37.8 32% 30 0.0
01 22:15 W 17 G 23 10.00 Fair CLR 68.9 37.6 32% 30.01 0.0
01 21:55 W 13 10.00 Fair CLR 69.3 36.5 30% 30.01 0.0
01 21:35 W 12 10.00 Fair CLR 69.3 36.5 30% 30 0.0
01 21:15 W 13 10.00 Fair CLR 69.8 37.9 31% 29.99 0.0
01 20:55 W 10 10.00 Fair CLR 70.3 39 32% 29.98 0.0
01 20:35 SW 9 10.00 Fair CLR 71.2 37.2 29% 29.98 0.0
01 20:15 W 9 10.00 Fair CLR 72 34.7 26% 29.97 0.0
01 19:55 SW 9 10.00 Fair CLR 73.4 33.4 23% 29.96 0.0
01 19:35 SW 15 10.00 Fair CLR 74.7 32.5 21% 29.96 0.0
01 19:15 SW 14 10.00 Fair CLR 75.9 32 20% 76 29.95 0.0
01 18:55 SW 20 10.00 Fair CLR 78.6 28.8 16% 78 29.95 0.0
01 18:35 SW 15 G 23 9.00 Fair CLR 80.4 29.1 15% 79 29.95 0.0
01 18:15 SW 16 10.00 Fair CLR 81.9 30.2 15% 80 29.94 0.0
01 17:55 SW 13 10.00 Fair CLR 83.3 31.8 16% 81 29.94 0.0
01 17:35 W 10 G 23 10.00 Fair CLR 84 31.5 15% 81 29.95 0.0
01 17:15 SW 9 10.00 Fair CLR 85.3 30.7 14% 82 29.94 0.0
01 16:55 W 7 G 23 10.00 Fair CLR 85.5 30.6 87.1 80.1 14% 82 29.95 0.0
01 16:35 S 22 G 29 10.00 Fair and Breezy CLR 85.8 31.1 14% 82 29.94 0.0
01 16:15 SW 21 G 30 10.00 Fair and Breezy CLR 85.8 30.7 14% 82 29.95 0.0
01 15:55 SW 18 10.00 Fair CLR 86.2 26.8 11% 83 29.95 0.0
01 15:35 SW 18 G 25 10.00 Fair CLR 86.4 25.2 11% 83 29.95 0.0
01 15:15 SW 18 10.00 Fair CLR 86 23.9 10% 83 29.96 0.0
01 14:55 SW 15 10.00 Fair CLR 86.4 23.9 10% 83 29.96 0.0
01 14:35 S 17 10.00 Fair CLR 86.2 20.8 9% 83 29.97 0.0
01 14:15 S 21 10.00 Fair and Breezy CLR 85.3 21.6 9% 82 29.97 0.0
01 13:55 SW 17 G 24 10.00 Fair CLR 85.5 19.6 9% 82 29.98 0.0
01 13:35 S 20 G 26 10.00 Fair CLR 84.6 19.6 9% 82 29.98 0.0
01 13:15 SW 20 G 29 10.00 Fair CLR 83.7 18.9 9% 81 29.99 0.0
01 12:55 SW 21 G 26 10.00 Fair and Breezy CLR 83.5 18.7 9% 81 30 0.0
01 12:35 SW 22 G 28 10.00 Fair and Breezy CLR 83.1 15.8 8% 80 30 0.0
01 12:15 SW 20 10.00 Fair CLR 82.9 15.6 8% 80 30.01 0.0
01 11:55 SW 20 10.00 Fair CLR 81.9 14.9 8% 79 30.02 0.0
01 11:35 SW 17 G 29 10.00 Fair CLR 81.5 14.5 8% 79 30.02 0.0
01 11:15 S 22 G 26 10.00 Fair and Breezy CLR 80.2 13.5 8% 78 30.02 0.0
01 10:55 SW 15 10.00 Fair CLR 78.8 12.4 78.8 55.6 8% 77 30.02 0.0
01 10:35 SW 20 G 24 10.00 Fair CLR 78.1 12 8% 77 30.02 0.0
01 10:15 SW 16 10.00 Fair CLR 78.1 12 8% 77 30.02 0.0
01 09:55 SW 17 10.00 Fair CLR 76.6 13.5 9% 76 30.01 0.0
01 09:35 SW 13 G 21 10.00 Fair CLR 77.4 14.2 9% 76 30.02 0.0
01 09:15 SW 16 10.00 Fair CLR 75.9 15.4 10% 75 30.01 0.0
01 08:55 SW 14 10.00 Fair CLR 75 14.7 10% 75 30.01 0.0
01 08:35 SW 12 10.00 Fair CLR 73.9 13.8 10% 30.01 0.0
01 08:15 S 8 10.00 Fair CLR 71.2 11.8 10% 30.01 0.0
01 07:55 S 5 10.00 Fair CLR 67.1 6.4 9% 30.01 0.0
01 07:35 SW 3 9.00 Fair CLR 63.5 7.7 11% 30.01 0.0
01 07:15 S 7 9.00 Fair CLR 62.2 7.3 11% 30 0.0
01 06:55 S 5 7.00 Fair CLR 59.5 9 13% 30 0.0
01 06:35 Calm 9.00 Fair CLR 57.2 9.9 15% 29.99 0.0
01 06:15 Calm 9.00 Fair CLR 58.3 7.5 13% 30 0.0
01 05:55 W 5 10.00 Fair CLR 56.8 8.2 14% 29.99 0.0
01 05:35 SW 6 10.00 Fair CLR 56.3 9.5 15% 29.99 0.0
01 05:15 SW 7 10.00 Fair CLR 63 2.7 9% 29.99 0.0
01 04:55 SW 7 10.00 Fair CLR 61.7 4.5 68.7 60.4 10% 29.99 0.0
01 04:35 SW 7 10.00 Fair CLR 61.2 4.1 10% 29.99 0.0
01 04:15 SW 9 10.00 Fair CLR 62.1 7 11% 29.98 0.0
01 03:55 S 7 10.00 Fair CLR 61.5 15.8 17% 29.98 0.0
01 03:35 SW 8 10.00 Fair CLR 64.9 12.2 13% 29.97 0.0
01 03:15 SW 12 10.00 Fair CLR 67.5 7.9 9% 29.97 0.0
01 02:55 SW 12 10.00 Fair CLR 66.4 15.8 14% 29.98 0.0
01 02:35 SW 13 10.00 Fair CLR 67.1 17.6 15% 29.98 0.0
01 02:15 SW 14 10.00 Fair CLR 68.2 16 13% 29.98 0.0
01 01:55 W 8 10.00 Fair CLR 63.9 22.5 20% 29.98 0.0
01 01:35 W 9 10.00 Fair CLR 65.7 20.5 18% 29.98 0.0
01 01:15 SW 9 10.00 Fair CLR 64.9 21.7 19% 29.98 0.0
01 00:55 SW 6 10.00 Fair CLR 62.8 29.1 28% 29.99 0.0
01 00:35 SW 7 10.00 Fair CLR 64.2 27 24% 29.99 0.0
01 00:15 SW 9 10.00 Fair CLR 66.6 27.5 23% 29.99 0.0
31 23:55 SW 7 10.00 Fair CLR 64.4 30.6 28% 29.98 0.0
31 23:35 SW 8 10.00 Fair CLR 65.1 29.3 26% 29.98 0.0
31 23:15 W 8 10.00 Fair CLR 65.5 28.2 25% 29.97 0.0
31 22:55 SW 9 10.00 Fair CLR 67.8 25.5 86.4 67.8 20% 29.97 0.0
31 22:35 SW 10 10.00 Fair CLR 70.2 26.1 19% 29.97 0.0
31 22:15 SW 13 10.00 Fair CLR 71.4 25.7 18% 29.97 0.0
31 21:55 SW 12 10.00 Fair CLR 71.6 25.5 18% 29.97 0.0
31 21:35 SW 10 10.00 Fair CLR 71.8 27.3 19% 29.97 0.0
31 21:15 SW 12 10.00 Fair CLR 72.1 30.9 22% 29.96 0.0
31 20:55 SW 12 10.00 Fair CLR 73.2 31.5 21% 29.95 0.0
31 20:35 SW 9 10.00 Fair CLR 73.8 33.1 23% 29.95 0.0
31 20:15 SW 14 10.00 Fair CLR 74.7 37.4 26% 29.94 0.0
31 19:55 SW 17 10.00 Fair CLR 75.6 41 29% 77 29.93 0.0
31 19:35 SW 18 10.00 Fair CLR 76.5 41.9 29% 77 29.92 0.0
31 19:15 SW 18 G 23 10.00 Fair CLR 78.1 38.7 24% 78 29.92 0.0
31 18:55 SW 16 G 24 10.00 Fair CLR 80.2 37.9 22% 79 29.92 0.0
31 18:35 SW 17 G 26 10.00 Fair CLR 81.5 35.8 19% 80 29.91 0.0
31 18:15 SW 22 G 29 10.00 Fair and Breezy CLR 82.6 37.4 20% 80 29.91 0.0
31 17:55 SW 22 G 26 10.00 Fair and Breezy CLR 84.2 35.6 18% 81 29.91 0.0
31 17:35 SW 24 G 30 10.00 Fair and Breezy CLR 84.9 33.6 16% 82 29.91 0.0
31 17:15 SW 22 G 29 10.00 Fair and Breezy CLR 86 34.5 16% 83 29.91 0.0
31 16:55 SW 23 G 30 10.00 Fair and Breezy CLR 86.7 33.4 90.3 84.9 15% 83 29.91 0.0
31 16:35 S 18 10.00 Fair CLR 87.8 32.7 14% 84 29.91 0.0
31 16:15 SW 21 G 25 10.00 Fair and Breezy CLR 88.3 34.9 15% 85 29.91 0.0
31 15:55 SW 18 G 23 10.00 Fair CLR 88.5 32.9 14% 85 29.92 0.0
31 15:35 SW 17 10.00 Fair CLR 88.5 29.5 12% 85 29.92 0.0
31 15:15 S 18 10.00 Fair CLR 88.7 30.4 12% 85 29.93 0.0
31 14:55 SW 21 G 28 10.00 Fair and Breezy CLR 88.2 33.1 14% 84 29.94 0.0
31 14:35 SW 23 G 28 10.00 Fair and Breezy CLR 89.2 31.5 13% 85 29.94 0.0
31 14:15 SW 18 G 31 10.00 Fair CLR 89.4 25.7 10% 85 29.95 0.0
31 13:55 SW 17 G 29 10.00 A Few Clouds FEW370 89.6 25.9 10% 86 29.95 0.0
31 13:35 SW 21 G 28 10.00 Fair and Breezy CLR 89.4 24.3 9% 85 29.95 0.0
31 13:15 SW 18 G 25 10.00 Fair CLR 89.1 25.3 10% 85 29.95 0.0
31 12:55 SW 20 G 29 10.00 A Few Clouds FEW370 89.2 26.4 10% 85 29.96 0.0
31 12:35 SW 16 G 24 10.00 A Few Clouds FEW370 88.7 28.4 11% 85 29.96 0.0
31 12:15 S 14 10.00 Fair CLR 88.5 28.9 12% 85 29.96 0.0
31 11:55 S 17 G 22 10.00 Fair CLR 86.9 32 14% 83 29.97 0.0
31 11:35 SW 15 G 25 10.00 Fair CLR 86.4 34 15% 83 29.97 0.0
31 11:15 SW 12 10.00 Fair CLR 86 32.9 15% 83 29.97 0.0
31 10:55 SW 16 G 23 10.00 Fair CLR 84.6 33.1 84.6 63.5 16% 82 29.98 0.0
31 10:35 SW 16 10.00 Fair CLR 83.1 36.5 19% 81 29.98 0.0
31 10:15 SW 13 10.00 Fair CLR 81.9 39.9 22% 80 29.98 0.0
31 09:55 S 13 10.00 Fair CLR 81 38.8 22% 79 29.97 0.0
31 09:35 SW 10 10.00 Fair CLR 79.9 38.1 22% 79 29.97 0.0
31 09:15 S 12 10.00 Fair CLR 79.2 34.7 20% 78 29.96 0.0
31 08:55 SW 10 10.00 Fair CLR 78.1 36.1 22% 78 29.96 0.0
31 08:35 S 9 10.00 Fair CLR 77.2 37.8 24% 77 29.96 0.0
31 08:15 S 9 10.00 Fair CLR 75 40.8 29% 77 29.96 0.0
31 07:55 SW 9 9.00 Fair CLR 71.4 43 36% 29.96 0.0
31 07:35 SW 8 10.00 Fair CLR 69.8 43.7 39% 29.96 0.0
31 07:15 SW 10 10.00 Fair CLR 67.3 44.1 43% 29.95 0.0
31 06:55 SW 8 9.00 Fair CLR 64.8 44.1 47% 29.94 0.0
31 06:35 SW 8 9.00 Fair CLR 64.4 43.9 47% 29.94 0.0
31 06:15 SW 8 9.00 Fair CLR 63.9 42.1 45% 29.93 0.0
31 05:55 SW 8 10.00 Fair CLR 65.5 41.7 42% 29.93 0.0
31 05:35 SW 8 10.00 Fair CLR 65.5 40.1 40% 29.93 0.0
31 05:15 SW 8 10.00 Fair CLR 65.5 39.9 39% 29.92 0.0
31 04:55 W 7 10.00 Fair CLR 66.4 39.4 77.4 66.2 37% 29.92 0.0
31 04:35 SW 5 10.00 Fair CLR 66.4 39.4 37% 29.93 0.0
31 04:15 SW 6 10.00 A Few Clouds FEW140 67.5 40.3 37% 29.93 0.0
31 03:55 W 6 10.00 Partly Cloudy SCT140 69.1 41 36% 29.93 0.0
31 03:35 W 7 8.00 Partly Cloudy SCT150 69.6 41 35% 29.93 0.0
31 03:15 W 6 9.00 Partly Cloudy SCT150 68.7 40.6 36% 29.93 0.0
31 02:55 SW 8 10.00 Mostly Cloudy BKN150 70.7 40.8 34% 29.93 0.0
31 02:35 SW 8 10.00 Partly Cloudy SCT150 70.9 41 34% 29.93 0.0
31 02:15 SW 9 10.00 Mostly Cloudy BKN150 71.8 41.9 34% 29.93 0.0
31 01:55 SW 6 10.00 Partly Cloudy SCT140 71.1 41.4 34% 29.93 0.0
31 01:35 SW 7 10.00 Partly Cloudy SCT150 70.9 41.2 34% 29.93 0.0
Date Time (pdt) Wind (mph) Vis. (mi.) Weather Sky Cond. Air Dwpt Max. Min. Relative Humidity Wind Chill (°F) Heat Index (°F) altimeter (in) sea level (mb) 1 hr 3 hr 6 hr
6 hour
Temperature (ºF) Pressure Precipitation (in)